Time;durP1;ratioP1;P1;durP2;ratioP2;P2;SDS_P1;SDS_P2;PMS_P1;PMS_P2;Temp;Humidity;BMP_temperature;BMP_pressure;BME280_temperature;BME280_humidity;BME280_pressure;Samples;Min_cycle;Max_cycle;Signal;HPM_P1;HPM_P2
2022/03/16 00:01:28;;;;;;;14.90;10.00;;;;;;;;;;5042174;28;20322;-71
2022/03/16 00:03:53;;;;;;;17.23;10.57;;;;;;;;;;5041934;28;20216;-72
2022/03/16 00:06:19;;;;;;;16.40;10.38;;;;;;;;;;5042115;28;20055;-71
2022/03/16 00:08:44;;;;;;;16.98;9.82;;;;;;;;;;5042344;28;20080;-71
2022/03/16 00:11:10;;;;;;;14.80;9.77;;;;;;;;;;5041778;28;20063;-71
2022/03/16 00:13:35;;;;;;;15.63;9.75;;;;;;;;;;5042228;28;20079;-73
2022/03/16 00:16:00;;;;;;;15.98;9.95;;;;;;;;;;5041747;28;20148;-72
2022/03/16 00:18:26;;;;;;;18.13;10.05;;;;;;;;;;5042066;28;20033;-72
2022/03/16 00:20:52;;;;;;;15.95;9.98;;;;;;;;;;5041906;28;20312;-73
2022/03/16 00:23:17;;;;;;;16.13;10.98;;;;;;;;;;5041946;28;20055;-73
2022/03/16 00:25:43;;;;;;;16.30;11.20;;;;;;;;;;5041261;28;20329;-70
2022/03/16 00:28:09;;;;;;;19.55;10.80;;;;;;;;;;5041738;28;20029;-73
2022/03/16 00:30:36;;;;;;;18.65;10.45;;;;;;;;;;5041741;28;20036;-72
2022/03/16 00:33:01;;;;;;;15.13;10.48;;;;;;;;;;5041727;28;20091;-73
2022/03/16 00:35:27;;;;;;;15.20;9.85;;;;;;;;;;5041520;28;20029;-73
2022/03/16 00:37:52;;;;;;;15.70;10.25;;;;;;;;;;5041618;28;20029;-72
2022/03/16 00:40:17;;;;;;;14.73;10.07;;;;;;;;;;5041581;28;20396;-72
2022/03/16 00:42:43;;;;;;;17.05;10.77;;;;;;;;;;5041254;28;20037;-73
2022/03/16 00:45:09;;;;;;;16.13;9.82;;;;;;;;;;5072948;28;20032;-72
2022/03/16 00:47:34;;;;;;;15.95;10.45;;;;;;;;;;5081233;28;20092;-72
2022/03/16 00:49:59;;;;;;;16.55;10.07;;;;;;;;;;5046336;28;20226;-73
2022/03/16 00:52:25;;;;;;;15.70;10.00;;;;;;;;;;5040885;28;20022;-73
2022/03/16 00:54:50;;;;;;;18.25;11.02;;;;;;;;;;5052255;28;20025;-73
2022/03/16 00:57:15;;;;;;;17.88;11.02;;;;;;;;;;5061560;28;20029;-73
2022/03/16 00:59:41;;;;;;;15.98;10.75;;;;;;;;;;5061039;28;20021;-73
2022/03/16 01:02:07;;;;;;;15.70;10.43;;;;;;;;;;5061094;28;20052;-73
2022/03/16 01:04:32;;;;;;;17.90;10.68;;;;;;;;;;5065271;28;20031;-73
2022/03/16 01:06:57;;;;;;;14.35;10.27;;;;;;;;;;5063632;28;20333;-73
2022/03/16 01:09:23;;;;;;;21.65;12.02;;;;;;;;;;5053150;28;20144;-72
2022/03/16 01:11:49;;;;;;;15.95;10.95;;;;;;;;;;5059316;28;20032;-73
2022/03/16 01:14:14;;;;;;;17.70;11.15;;;;;;;;;;5042676;28;20028;-73
2022/03/16 01:16:40;;;;;;;18.55;11.13;;;;;;;;;;5047131;28;20060;-73
2022/03/16 01:19:06;;;;;;;17.05;11.10;;;;;;;;;;5040623;28;20277;-73
2022/03/16 01:21:32;;;;;;;21.55;11.95;;;;;;;;;;5040482;28;20326;-73
2022/03/16 01:23:58;;;;;;;16.20;11.27;;;;;;;;;;5040199;28;20036;-73
2022/03/16 01:26:23;;;;;;;20.33;11.68;;;;;;;;;;5059076;28;20037;-73
2022/03/16 01:28:49;;;;;;;19.35;11.20;;;;;;;;;;5054530;28;20029;-74
2022/03/16 01:31:14;;;;;;;20.73;11.77;;;;;;;;;;5072686;28;20118;-74
2022/03/16 01:33:39;;;;;;;20.85;12.05;;;;;;;;;;5043320;28;20089;-73
2022/03/16 01:36:05;;;;;;;18.33;11.38;;;;;;;;;;5040211;28;20037;-73
2022/03/16 01:38:30;;;;;;;19.15;12.05;;;;;;;;;;5040391;28;20044;-73
2022/03/16 01:40:56;;;;;;;18.83;10.82;;;;;;;;;;5040133;28;20124;-76
2022/03/16 01:43:22;;;;;;;19.08;11.27;;;;;;;;;;5042677;28;20044;-73
2022/03/16 01:45:49;;;;;;;17.38;11.23;;;;;;;;;;5040069;28;20026;-72
2022/03/16 01:48:14;;;;;;;20.65;11.70;;;;;;;;;;5040440;28;20018;-73
2022/03/16 01:50:40;;;;;;;18.88;11.55;;;;;;;;;;5040375;28;20028;-73
2022/03/16 01:53:05;;;;;;;21.05;10.75;;;;;;;;;;5040241;28;20025;-73
2022/03/16 01:55:31;;;;;;;21.73;12.30;;;;;;;;;;5039963;28;20033;-73
2022/03/16 01:57:57;;;;;;;19.10;11.98;;;;;;;;;;5040241;28;20014;-72
2022/03/16 02:00:22;;;;;;;18.73;11.60;;;;;;;;;;5060374;28;20088;-72
2022/03/16 02:02:48;;;;;;;18.58;11.57;;;;;;;;;;5059991;28;20088;-72
2022/03/16 02:05:13;;;;;;;18.40;11.43;;;;;;;;;;5058855;28;20052;-71
2022/03/16 02:07:41;;;;;;;18.85;11.52;;;;;;;;;;5043612;28;20017;-71
2022/03/16 02:10:07;;;;;;;16.13;11.40;;;;;;;;;;5043545;28;20036;-71
2022/03/16 02:12:46;;;;;;;19.05;11.60;;;;;;;;;;5043767;28;20321;-72
2022/03/16 02:15:12;;;;;;;18.33;11.80;;;;;;;;;;5046366;28;20063;-74
2022/03/16 02:17:38;;;;;;;19.30;11.90;;;;;;;;;;5044024;28;20033;-72
2022/03/16 02:20:05;;;;;;;20.55;11.77;;;;;;;;;;5071318;28;20028;-71
2022/03/16 02:22:36;;;;;;;18.63;11.68;;;;;;;;;;5082251;28;20421;-71
2022/03/16 02:25:02;;;;;;;19.67;11.35;;;;;;;;;;5083824;28;20036;-71
2022/03/16 02:27:28;;;;;;;17.67;11.40;;;;;;;;;;5084050;28;20312;-70
2022/03/16 02:29:54;;;;;;;19.52;11.95;;;;;;;;;;5069089;28;20078;-71
2022/03/16 02:32:19;;;;;;;19.05;11.75;;;;;;;;;;5074482;28;20032;-72
2022/03/16 02:37:20;;;;;;;;;;;;;;;;;;5382885;22;20297;-72
2022/03/16 02:39:47;;;;;;;17.63;11.27;;;;;;;;;;4999449;28;19972;-71
2022/03/16 02:42:12;;;;;;;19.52;11.23;;;;;;;;;;5003775;28;20030;-71
2022/03/16 02:44:38;;;;;;;18.55;11.40;;;;;;;;;;5004166;28;20030;-71
2022/03/16 02:47:03;;;;;;;19.15;11.48;;;;;;;;;;5004254;28;20193;-73
2022/03/16 02:49:31;;;;;;;21.15;11.52;;;;;;;;;;5011238;28;20056;-72
2022/03/16 02:51:56;;;;;;;19.17;11.30;;;;;;;;;;5023488;28;20022;-71
2022/03/16 02:54:21;;;;;;;18.73;11.43;;;;;;;;;;5023476;28;20033;-71
2022/03/16 02:56:47;;;;;;;18.80;11.88;;;;;;;;;;5019659;28;20037;-71
2022/03/16 02:59:13;;;;;;;18.40;11.70;;;;;;;;;;5003775;28;20619;-70
2022/03/16 03:01:38;;;;;;;19.15;12.13;;;;;;;;;;5002638;28;20034;-71
2022/03/16 03:04:04;;;;;;;19.45;12.27;;;;;;;;;;5004220;28;20217;-71
2022/03/16 03:06:30;;;;;;;19.65;12.45;;;;;;;;;;5003356;28;20030;-71
2022/03/16 03:08:55;;;;;;;19.48;11.82;;;;;;;;;;5014624;28;20025;-71
2022/03/16 03:11:21;;;;;;;21.10;11.38;;;;;;;;;;5022585;28;20025;-71
2022/03/16 03:13:46;;;;;;;19.05;11.73;;;;;;;;;;5009368;28;20034;-71
2022/03/16 03:16:11;;;;;;;17.80;11.25;;;;;;;;;;5031124;28;20034;-72
2022/03/16 03:18:37;;;;;;;16.80;11.10;;;;;;;;;;5010331;28;20022;-71
2022/03/16 03:21:03;;;;;;;19.00;11.25;;;;;;;;;;5022740;28;20038;-72
2022/03/16 03:23:28;;;;;;;17.75;11.25;;;;;;;;;;5007699;28;20031;-71
2022/03/16 03:25:54;;;;;;;18.63;11.18;;;;;;;;;;5003434;28;20318;-73
2022/03/16 03:28:19;;;;;;;16.83;10.75;;;;;;;;;;5013582;28;20030;-73
2022/03/16 03:30:44;;;;;;;17.52;10.80;;;;;;;;;;5007950;28;20065;-72
2022/03/16 03:33:10;;;;;;;18.45;11.35;;;;;;;;;;5003637;28;20241;-72
2022/03/16 03:35:35;;;;;;;19.92;11.48;;;;;;;;;;5002531;28;20070;-72
2022/03/16 03:38:01;;;;;;;18.13;11.32;;;;;;;;;;5003303;28;20109;-73
2022/03/16 03:40:26;;;;;;;20.42;11.40;;;;;;;;;;5034756;28;20026;-72
2022/03/16 03:42:52;;;;;;;22.30;12.10;;;;;;;;;;5015836;28;20034;-71
2022/03/16 03:45:17;;;;;;;19.88;12.05;;;;;;;;;;5022683;28;20026;-72
2022/03/16 03:47:42;;;;;;;22.00;12.23;;;;;;;;;;5007392;28;20060;-73
2022/03/16 03:50:08;;;;;;;18.52;11.68;;;;;;;;;;5010796;28;20125;-71
2022/03/16 03:52:33;;;;;;;19.50;12.07;;;;;;;;;;5022238;28;20032;-72
2022/03/16 03:54:59;;;;;;;19.15;12.35;;;;;;;;;;5022929;28;20026;-71
2022/03/16 03:57:24;;;;;;;20.77;12.68;;;;;;;;;;5021532;28;20064;-73
2022/03/16 03:59:49;;;;;;;20.60;11.63;;;;;;;;;;5016067;28;20030;-75
2022/03/16 04:02:15;;;;;;;20.38;12.98;;;;;;;;;;5002929;28;20374;-71
2022/03/16 04:04:41;;;;;;;22.42;12.32;;;;;;;;;;5001468;28;20061;-71
2022/03/16 04:07:06;;;;;;;20.30;12.57;;;;;;;;;;5017936;28;20037;-71
2022/03/16 04:09:32;;;;;;;23.13;12.93;;;;;;;;;;5020082;28;20049;-72
2022/03/16 04:11:57;;;;;;;19.80;11.77;;;;;;;;;;5022565;28;20022;-71
2022/03/16 04:14:23;;;;;;;24.75;11.93;;;;;;;;;;5021949;28;20257;-72
2022/03/16 04:16:48;;;;;;;19.67;11.98;;;;;;;;;;5006941;28;20313;-72
2022/03/16 04:19:13;;;;;;;19.17;12.02;;;;;;;;;;5002108;28;20144;-72
2022/03/16 04:21:39;;;;;;;18.55;12.02;;;;;;;;;;5002208;28;20022;-71
2022/03/16 04:24:05;;;;;;;20.13;12.07;;;;;;;;;;5002736;28;20036;-71
2022/03/16 04:26:30;;;;;;;19.25;11.85;;;;;;;;;;5011841;28;20195;-72
2022/03/16 04:28:56;;;;;;;21.20;11.88;;;;;;;;;;5021990;28;20065;-72
2022/03/16 04:31:21;;;;;;;24.58;12.40;;;;;;;;;;5021979;28;20228;-72
2022/03/16 04:33:47;;;;;;;18.55;11.43;;;;;;;;;;5003273;28;20050;-73
2022/03/16 04:36:12;;;;;;;21.88;12.80;;;;;;;;;;5010700;28;20221;-72
2022/03/16 04:38:37;;;;;;;22.20;12.35;;;;;;;;;;5020784;28;20022;-73
2022/03/16 04:41:04;;;;;;;22.08;12.85;;;;;;;;;;5021852;28;20030;-72
2022/03/16 04:43:29;;;;;;;25.63;12.85;;;;;;;;;;5020381;28;20085;-73
2022/03/16 04:45:55;;;;;;;25.27;14.27;;;;;;;;;;5007822;28;20041;-71
2022/03/16 04:48:20;;;;;;;22.40;13.45;;;;;;;;;;5021305;28;20033;-71
2022/03/16 04:50:45;;;;;;;20.88;12.48;;;;;;;;;;5021081;28;20030;-71
2022/03/16 04:53:11;;;;;;;19.48;12.30;;;;;;;;;;5015153;28;20030;-70
2022/03/16 04:55:36;;;;;;;20.40;11.75;;;;;;;;;;5004891;28;20047;-71
2022/03/16 04:58:06;;;;;;;22.67;12.85;;;;;;;;;;5020599;28;20379;-71
2022/03/16 05:00:32;;;;;;;21.77;13.13;;;;;;;;;;5008138;28;20037;-71
2022/03/16 05:02:58;;;;;;;23.23;12.68;;;;;;;;;;5000528;28;20034;-70
2022/03/16 05:05:23;;;;;;;23.00;13.13;;;;;;;;;;5009547;28;20029;-71
2022/03/16 05:07:48;;;;;;;21.10;13.25;;;;;;;;;;5001123;28;20034;-71
2022/03/16 05:10:14;;;;;;;21.23;12.70;;;;;;;;;;5001422;28;20032;-71
2022/03/16 05:12:41;;;;;;;23.15;12.77;;;;;;;;;;5002002;28;20029;-71
2022/03/16 05:15:08;;;;;;;23.50;13.27;;;;;;;;;;5001195;28;20026;-71
2022/03/16 05:17:35;;;;;;;21.83;13.50;;;;;;;;;;5019118;28;20053;-70
2022/03/16 05:20:01;;;;;;;24.48;13.75;;;;;;;;;;5021396;28;20029;-73
2022/03/16 05:22:26;;;;;;;21.40;13.40;;;;;;;;;;5019874;28;20340;-73
2022/03/16 05:24:51;;;;;;;20.10;12.00;;;;;;;;;;5021131;28;20357;-73
2022/03/16 05:27:20;;;;;;;22.90;12.60;;;;;;;;;;5016168;28;20217;-71
2022/03/16 05:29:46;;;;;;;22.02;12.55;;;;;;;;;;5020348;28;20067;-72
2022/03/16 05:32:11;;;;;;;23.42;12.18;;;;;;;;;;5007773;28;20034;-73
2022/03/16 05:34:37;;;;;;;23.65;12.60;;;;;;;;;;5001494;28;20038;-73
2022/03/16 05:37:03;;;;;;;21.45;12.85;;;;;;;;;;5004409;28;20046;-71
2022/03/16 05:39:28;;;;;;;23.50;12.65;;;;;;;;;;5024583;28;20036;-71
2022/03/16 05:41:53;;;;;;;20.27;11.80;;;;;;;;;;5013191;28;20023;-72
2022/03/16 05:44:19;;;;;;;18.92;12.07;;;;;;;;;;5004562;28;20205;-75
2022/03/16 05:46:44;;;;;;;22.98;12.98;;;;;;;;;;5005446;28;20026;-74
2022/03/16 05:49:10;;;;;;;22.83;12.95;;;;;;;;;;5007873;28;20038;-70
2022/03/16 05:51:35;;;;;;;19.52;11.85;;;;;;;;;;5015133;28;20037;-70
2022/03/16 05:54:01;;;;;;;21.25;12.48;;;;;;;;;;5005657;28;20068;-73
2022/03/16 05:56:26;;;;;;;20.73;12.05;;;;;;;;;;5011817;28;20021;-72
2022/03/16 05:58:51;;;;;;;19.23;11.73;;;;;;;;;;5024935;28;20120;-71
2022/03/16 06:01:17;;;;;;;22.83;12.60;;;;;;;;;;5018978;28;20226;-71
2022/03/16 06:03:42;;;;;;;21.23;12.27;;;;;;;;;;5005780;28;20053;-72
2022/03/16 06:06:08;;;;;;;23.85;14.07;;;;;;;;;;5004858;28;20073;-72
2022/03/16 06:08:34;;;;;;;26.38;14.32;;;;;;;;;;5004341;28;20026;-72
2022/03/16 06:10:59;;;;;;;24.13;13.68;;;;;;;;;;5005054;28;20037;-71
2022/03/16 06:13:25;;;;;;;26.80;14.25;;;;;;;;;;5020140;28;20442;-73
2022/03/16 06:15:51;;;;;;;25.38;13.05;;;;;;;;;;5024280;28;20042;-72
2022/03/16 06:18:16;;;;;;;25.58;13.95;;;;;;;;;;5022689;28;20094;-71
2022/03/16 06:20:41;;;;;;;26.70;13.25;;;;;;;;;;5023290;28;20076;-72
2022/03/16 06:23:08;;;;;;;25.23;13.50;;;;;;;;;;5018010;28;20036;-72
2022/03/16 06:25:35;;;;;;;24.27;12.93;;;;;;;;;;5024567;28;20022;-72
2022/03/16 06:28:01;;;;;;;22.90;13.45;;;;;;;;;;5010398;28;20046;-71
2022/03/16 06:30:26;;;;;;;21.38;13.52;;;;;;;;;;5003918;28;20333;-72
2022/03/16 06:32:52;;;;;;;23.55;13.55;;;;;;;;;;5004750;28;20058;-72
2022/03/16 06:35:18;;;;;;;24.02;13.77;;;;;;;;;;5020274;28;20030;-72
2022/03/16 06:37:44;;;;;;;24.25;14.02;;;;;;;;;;5016055;28;20053;-72
2022/03/16 06:40:10;;;;;;;23.73;13.60;;;;;;;;;;5005415;28;20034;-71
2022/03/16 06:42:46;;;;;;;27.05;14.57;;;;;;;;;;5003148;28;20259;-71
2022/03/16 06:45:12;;;;;;;22.48;13.82;;;;;;;;;;5005286;28;20065;-71
2022/03/16 06:47:38;;;;;;;32.00;15.52;;;;;;;;;;5021073;28;20018;-71
2022/03/16 06:50:05;;;;;;;23.52;14.43;;;;;;;;;;5019063;28;20029;-71
2022/03/16 06:52:31;;;;;;;24.70;13.60;;;;;;;;;;5003363;28;20325;-71
2022/03/16 06:54:56;;;;;;;24.48;14.77;;;;;;;;;;5004075;28;20038;-71
2022/03/16 06:57:21;;;;;;;22.80;13.85;;;;;;;;;;5001779;28;20042;-71
2022/03/16 06:59:47;;;;;;;26.02;14.75;;;;;;;;;;5004835;28;20041;-71
2022/03/16 07:02:12;;;;;;;27.05;14.95;;;;;;;;;;5005272;28;20210;-71
2022/03/16 07:04:37;;;;;;;25.45;14.18;;;;;;;;;;5003229;28;20033;-71
2022/03/16 07:07:03;;;;;;;25.65;14.55;;;;;;;;;;5004291;28;20022;-70
2022/03/16 07:09:32;;;;;;;27.50;15.43;;;;;;;;;;4986983;28;20031;-71
2022/03/16 07:11:58;;;;;;;29.48;16.27;;;;;;;;;;4985226;28;20039;-71
2022/03/16 07:14:32;;;;;;;31.75;17.65;;;;;;;;;;4995211;28;20045;-75
2022/03/16 07:16:58;;;;;;;32.70;18.00;;;;;;;;;;4983738;28;20348;-73
2022/03/16 07:19:24;;;;;;;31.02;17.13;;;;;;;;;;4989508;28;20073;-73
2022/03/16 07:21:50;;;;;;;39.60;18.08;;;;;;;;;;4989184;28;20059;-71
2022/03/16 07:24:15;;;;;;;32.60;17.25;;;;;;;;;;5002728;28;20380;-71
2022/03/16 07:26:40;;;;;;;34.75;17.08;;;;;;;;;;5001682;28;20034;-72
2022/03/16 07:29:06;;;;;;;32.05;16.80;;;;;;;;;;5002537;28;20098;-70
2022/03/16 07:31:32;;;;;;;30.13;16.58;;;;;;;;;;4993621;28;20253;-75
2022/03/16 07:33:57;;;;;;;28.35;16.58;;;;;;;;;;5001902;28;20042;-74
2022/03/16 07:36:23;;;;;;;33.30;17.08;;;;;;;;;;5002548;28;20229;-70
2022/03/16 07:38:49;;;;;;;28.13;16.33;;;;;;;;;;5003116;28;20081;-70
2022/03/16 07:41:15;;;;;;;32.83;17.20;;;;;;;;;;5001591;28;20032;-70
2022/03/16 07:43:41;;;;;;;30.23;17.13;;;;;;;;;;5000310;28;20026;-71
2022/03/16 07:46:06;;;;;;;28.20;16.17;;;;;;;;;;5003019;28;20038;-70
2022/03/16 07:48:34;;;;;;;30.85;17.27;;;;;;;;;;5001782;28;20041;-70
2022/03/16 07:50:59;;;;;;;28.60;15.68;;;;;;;;;;5002034;28;20222;-72
2022/03/16 07:53:25;;;;;;;29.88;16.95;;;;;;;;;;5003131;28;20029;-70
2022/03/16 07:55:55;;;;;;;29.88;16.65;;;;;;;;;;4997007;28;20035;-70
2022/03/16 07:58:21;;;;;;;30.52;17.30;;;;;;;;;;4994692;28;20033;-70
2022/03/16 08:00:46;;;;;;;28.95;16.63;;;;;;;;;;4994640;28;20061;-70
2022/03/16 08:03:13;;;;;;;30.23;16.58;;;;;;;;;;5000544;28;20026;-74
2022/03/16 08:05:39;;;;;;;31.63;16.48;;;;;;;;;;5001959;28;20034;-70
2022/03/16 08:08:05;;;;;;;31.25;17.30;;;;;;;;;;5001996;28;20373;-69
2022/03/16 08:10:31;;;;;;;28.55;16.52;;;;;;;;;;5002467;28;20109;-71
2022/03/16 08:12:56;;;;;;;31.63;15.88;;;;;;;;;;5001879;28;20023;-69
2022/03/16 08:15:22;;;;;;;28.83;15.60;;;;;;;;;;5001961;28;20152;-69
2022/03/16 08:17:47;;;;;;;30.88;15.95;;;;;;;;;;5001779;28;20102;-69
2022/03/16 08:20:13;;;;;;;26.17;15.82;;;;;;;;;;5001582;28;20026;-70
2022/03/16 08:22:38;;;;;;;26.30;14.85;;;;;;;;;;5001287;28;20110;-69
2022/03/16 08:25:09;;;;;;;37.20;16.83;;;;;;;;;;5002507;28;20053;-69
2022/03/16 08:27:37;;;;;;;29.33;16.25;;;;;;;;;;5002168;28;20022;-70
2022/03/16 08:30:04;;;;;;;24.02;14.07;;;;;;;;;;5001437;28;20026;-72
2022/03/16 08:32:29;;;;;;;23.77;14.93;;;;;;;;;;5001505;28;20060;-71
2022/03/16 08:34:55;;;;;;;26.65;14.77;;;;;;;;;;5001739;28;20345;-73
2022/03/16 08:37:20;;;;;;;24.92;14.82;;;;;;;;;;5001311;28;20088;-75
2022/03/16 08:39:47;;;;;;;25.05;15.45;;;;;;;;;;4988610;28;20097;-75
2022/03/16 08:42:12;;;;;;;28.02;16.00;;;;;;;;;;4980721;28;20039;-75
2022/03/16 08:44:38;;;;;;;24.65;14.90;;;;;;;;;;4978463;28;20029;-75
2022/03/16 08:47:04;;;;;;;27.52;15.38;;;;;;;;;;4984256;28;20035;-74
2022/03/16 08:49:30;;;;;;;30.40;15.23;;;;;;;;;;4988370;28;20022;-75
2022/03/16 08:51:58;;;;;;;24.55;15.45;;;;;;;;;;4984728;28;20109;-74
2022/03/16 08:54:24;;;;;;;27.85;16.23;;;;;;;;;;4992553;28;20095;-75
2022/03/16 08:56:50;;;;;;;27.50;15.80;;;;;;;;;;4984532;28;20080;-74
2022/03/16 08:59:16;;;;;;;29.48;16.42;;;;;;;;;;4985784;28;20026;-74
2022/03/16 09:01:41;;;;;;;26.52;15.15;;;;;;;;;;4984512;28;20049;-74
2022/03/16 09:04:06;;;;;;;34.47;15.57;;;;;;;;;;4979992;28;20018;-74
2022/03/16 09:06:32;;;;;;;26.85;16.33;;;;;;;;;;4985746;28;20027;-74
2022/03/16 09:08:57;;;;;;;28.83;16.42;;;;;;;;;;4988703;28;20373;-74
2022/03/16 09:11:23;;;;;;;29.80;16.65;;;;;;;;;;4987993;28;20084;-74
2022/03/16 09:13:49;;;;;;;26.30;15.85;;;;;;;;;;4988461;28;20135;-74
2022/03/16 09:16:15;;;;;;;25.85;15.70;;;;;;;;;;4985881;28;20044;-74
2022/03/16 09:18:41;;;;;;;29.08;16.52;;;;;;;;;;4990493;28;20228;-74
2022/03/16 09:21:07;;;;;;;26.17;15.68;;;;;;;;;;4991850;28;20052;-74
2022/03/16 09:23:32;;;;;;;25.35;14.98;;;;;;;;;;4981283;28;20022;-75
2022/03/16 09:26:05;;;;;;;28.00;15.10;;;;;;;;;;4989101;28;20084;-74
2022/03/16 09:28:31;;;;;;;29.02;15.73;;;;;;;;;;4990380;28;20215;-74
2022/03/16 09:30:57;;;;;;;27.42;15.82;;;;;;;;;;4984675;28;20229;-74
2022/03/16 09:33:23;;;;;;;30.73;16.27;;;;;;;;;;4983975;28;20035;-74
2022/03/16 09:35:50;;;;;;;26.70;15.23;;;;;;;;;;4985536;28;20165;-74
2022/03/16 09:38:18;;;;;;;28.00;14.35;;;;;;;;;;4988089;28;20069;-75
2022/03/16 09:40:45;;;;;;;20.83;13.73;;;;;;;;;;4980657;28;20034;-75
2022/03/16 09:43:17;;;;;;;27.85;14.90;;;;;;;;;;4980000;28;20085;-74
2022/03/16 09:45:55;;;;;;;24.13;13.68;;;;;;;;;;4980357;28;20085;-74
2022/03/16 09:48:21;;;;;;;22.90;14.35;;;;;;;;;;4980222;28;20019;-74
2022/03/16 09:50:48;;;;;;;30.80;16.10;;;;;;;;;;4979509;28;20097;-74
2022/03/16 09:53:15;;;;;;;24.77;13.90;;;;;;;;;;4986688;28;20249;-74
2022/03/16 09:55:40;;;;;;;26.52;15.18;;;;;;;;;;4984909;28;20010;-74
2022/03/16 09:58:06;;;;;;;24.38;14.68;;;;;;;;;;4984670;28;20415;-74
2022/03/16 10:00:31;;;;;;;25.92;13.95;;;;;;;;;;4983509;28;20500;-74
2022/03/16 10:03:03;;;;;;;26.35;14.73;;;;;;;;;;4980892;28;20029;-75
2022/03/16 10:05:29;;;;;;;26.02;14.18;;;;;;;;;;4984602;28;20030;-75
2022/03/16 10:07:55;;;;;;;28.90;14.35;;;;;;;;;;4986253;28;20034;-73
2022/03/16 10:13:14;;;;;;;24.70;13.48;;;;;;;;;;4988282;28;20114;-74
2022/03/16 10:15:40;;;;;;;26.75;13.63;;;;;;;;;;4988383;28;20309;-74
2022/03/16 10:18:06;;;;;;;23.48;13.50;;;;;;;;;;4981278;28;20034;-74
2022/03/16 10:20:39;;;;;;;22.23;13.52;;;;;;;;;;4980048;28;20050;-74
2022/03/16 10:23:14;;;;;;;26.10;13.40;;;;;;;;;;4979281;28;20037;-74
2022/03/16 10:25:45;;;;;;;22.70;13.45;;;;;;;;;;4987677;28;20022;-76
2022/03/16 10:28:11;;;;;;;24.52;13.90;;;;;;;;;;4984117;28;20023;-75
2022/03/16 10:30:38;;;;;;;25.35;14.95;;;;;;;;;;4983181;28;20101;-74
2022/03/16 10:33:04;;;;;;;26.48;14.80;;;;;;;;;;4983917;28;20023;-73
2022/03/16 10:35:30;;;;;;;35.17;15.90;;;;;;;;;;4982659;28;20026;-74
2022/03/16 10:38:12;;;;;;;29.60;15.40;;;;;;;;;;4981732;28;20038;-75
2022/03/16 10:40:38;;;;;;;23.98;13.93;;;;;;;;;;4986487;28;20027;-73
2022/03/16 10:48:56;;;;;;;25.20;14.65;;;;;;;;;;5009275;28;20045;-72
2022/03/16 10:51:22;;;;;;;26.65;14.50;;;;;;;;;;5013595;28;20049;-73
2022/03/16 10:53:50;;;;;;;25.77;14.60;;;;;;;;;;5009447;28;20026;-72
2022/03/16 10:56:17;;;;;;;30.25;14.95;;;;;;;;;;5010262;28;20029;-72
2022/03/16 10:58:45;;;;;;;25.20;14.07;;;;;;;;;;5002358;28;20038;-72
2022/03/16 11:01:12;;;;;;;21.80;14.05;;;;;;;;;;5014285;28;20093;-72
2022/03/16 11:03:42;;;;;;;26.40;15.55;;;;;;;;;;5003198;28;20034;-73
2022/03/16 11:06:08;;;;;;;24.40;14.60;;;;;;;;;;5006035;28;20038;-72
2022/03/16 11:08:37;;;;;;;23.13;13.55;;;;;;;;;;5002911;28;20377;-73
2022/03/16 11:13:48;;;;;;;30.45;13.50;;;;;;;;;;5009636;28;20033;-72
2022/03/16 11:16:19;;;;;;;26.73;13.45;;;;;;;;;;5004597;28;20310;-72
2022/03/16 11:18:46;;;;;;;20.92;13.32;;;;;;;;;;5012398;28;20112;-73
2022/03/16 11:21:14;;;;;;;27.85;14.25;;;;;;;;;;5018274;28;20329;-74
2022/03/16 11:26:45;;;;;;;22.83;14.02;;;;;;;;;;4999345;28;20029;-73
2022/03/16 11:29:26;;;;;;;26.35;13.93;;;;;;;;;;5007931;28;20099;-73
2022/03/16 11:32:07;;;;;;;25.92;13.25;;;;;;;;;;5015941;28;20029;-73
2022/03/16 11:34:34;;;;;;;25.33;13.00;;;;;;;;;;5002146;28;20026;-73
2022/03/16 11:37:05;;;;;;;24.02;13.80;;;;;;;;;;5001677;28;20046;-73
2022/03/16 11:39:45;;;;;;;24.35;13.60;;;;;;;;;;5007949;28;20313;-73
2022/03/16 11:42:20;;;;;;;25.55;13.00;;;;;;;;;;5002566;28;20076;-73
2022/03/16 11:44:45;;;;;;;23.52;12.52;;;;;;;;;;5020550;28;20030;-73
2022/03/16 11:47:11;;;;;;;21.90;12.23;;;;;;;;;;5022336;28;20068;-73
2022/03/16 11:49:38;;;;;;;20.63;12.10;;;;;;;;;;5011463;28;20030;-73
2022/03/16 11:52:05;;;;;;;19.45;12.18;;;;;;;;;;5008379;28;20321;-73
2022/03/16 11:54:48;;;;;;;19.48;11.73;;;;;;;;;;5008852;28;20032;-73
2022/03/16 11:57:29;;;;;;;20.88;12.40;;;;;;;;;;4999476;28;20054;-73
2022/03/16 12:00:10;;;;;;;17.67;11.50;;;;;;;;;;4984225;28;20033;-73
2022/03/16 12:02:37;;;;;;;22.60;11.55;;;;;;;;;;4994434;28;20036;-73
2022/03/16 12:05:04;;;;;;;24.13;12.35;;;;;;;;;;4995844;28;20030;-73
2022/03/16 12:07:35;;;;;;;24.67;11.50;;;;;;;;;;4998021;28;20041;-72
2022/03/16 12:10:07;;;;;;;20.13;11.57;;;;;;;;;;5018355;28;20026;-75
2022/03/16 12:12:54;;;;;;;17.95;10.77;;;;;;;;;;5002483;28;20019;-71
2022/03/16 12:15:39;;;;;;;17.25;10.82;;;;;;;;;;4983026;28;20107;-71
2022/03/16 12:18:05;;;;;;;23.33;11.93;;;;;;;;;;4996298;28;20089;-70
2022/03/16 12:20:56;;;;;;;21.05;12.57;;;;;;;;;;5002004;28;20381;-71
2022/03/16 12:23:40;;;;;;;25.70;11.70;;;;;;;;;;5001591;28;20034;-73
2022/03/16 12:26:05;;;;;;;20.63;11.20;;;;;;;;;;5001710;28;20022;-71
2022/03/16 12:31:17;;;;;;;15.23;9.68;;;;;;;;;;5007386;28;20102;-72
2022/03/16 12:33:48;;;;;;;19.70;10.00;;;;;;;;;;5003932;28;20021;-72
2022/03/16 12:36:16;;;;;;;20.67;10.68;;;;;;;;;;5001606;28;20049;-71
2022/03/16 12:38:51;;;;;;;17.52;9.18;;;;;;;;;;5002058;28;20045;-71
2022/03/16 12:44:12;;;;;;;16.52;9.18;;;;;;;;;;5001827;28;20033;-71
2022/03/16 12:46:49;;;;;;;19.83;9.48;;;;;;;;;;5000369;28;20097;-72
2022/03/16 12:49:18;;;;;;;17.63;8.95;;;;;;;;;;5001091;28;20040;-72
2022/03/16 12:51:47;;;;;;;18.63;8.93;;;;;;;;;;5001706;28;20018;-71
2022/03/16 12:54:27;;;;;;;19.05;9.05;;;;;;;;;;5001111;28;20026;-71
2022/03/16 12:57:05;;;;;;;15.68;7.75;;;;;;;;;;5001668;28;20098;-70
2022/03/16 12:59:36;;;;;;;16.17;8.32;;;;;;;;;;4982380;28;20334;-70
2022/03/16 13:02:06;;;;;;;13.95;7.93;;;;;;;;;;4994888;28;20089;-71
2022/03/16 13:04:31;;;;;;;16.90;6.82;;;;;;;;;;5001570;28;20042;-70
2022/03/16 13:06:59;;;;;;;14.60;7.35;;;;;;;;;;5000941;28;20050;-70
2022/03/16 13:09:29;;;;;;;11.63;6.85;;;;;;;;;;4982348;28;20053;-72
2022/03/16 13:12:05;;;;;;;20.17;7.68;;;;;;;;;;5000497;28;20035;-71
2022/03/16 13:14:33;;;;;;;15.57;7.45;;;;;;;;;;5003098;28;20032;-73
2022/03/16 13:16:59;;;;;;;15.55;7.57;;;;;;;;;;5006744;28;20026;-71
2022/03/16 13:19:31;;;;;;;14.23;6.97;;;;;;;;;;5003258;28;20030;-80
2022/03/16 13:22:04;;;;;;;20.65;7.80;;;;;;;;;;5001908;28;20026;-70
2022/03/16 13:24:37;;;;;;;18.42;8.05;;;;;;;;;;5009130;28;20034;-72
2022/03/16 13:27:05;;;;;;;16.92;8.23;;;;;;;;;;5017419;28;20041;-71
2022/03/16 13:29:33;;;;;;;19.08;10.63;;;;;;;;;;5011310;28;20057;-71
2022/03/16 13:32:00;;;;;;;18.35;8.63;;;;;;;;;;4988755;28;20136;-71
2022/03/16 13:34:26;;;;;;;19.90;8.45;;;;;;;;;;5012096;28;20026;-70
2022/03/16 13:36:53;;;;;;;18.85;8.52;;;;;;;;;;5016268;28;20058;-71
2022/03/16 13:39:30;;;;;;;19.27;8.23;;;;;;;;;;5004385;28;20089;-71
2022/03/16 13:42:12;;;;;;;16.77;8.02;;;;;;;;;;5000553;28;20021;-71
2022/03/16 13:44:44;;;;;;;21.65;8.30;;;;;;;;;;4990559;28;20030;-71
2022/03/16 13:47:12;;;;;;;14.88;8.38;;;;;;;;;;4990665;28;20224;-71
2022/03/16 13:49:49;;;;;;;18.70;9.25;;;;;;;;;;5010720;28;20078;-70
2022/03/16 13:52:18;;;;;;;16.63;7.90;;;;;;;;;;4985242;28;20042;-71
2022/03/16 13:54:44;;;;;;;16.40;9.00;;;;;;;;;;4990523;28;20027;-71
2022/03/16 13:57:12;;;;;;;14.85;8.65;;;;;;;;;;4989129;28;20033;-71
2022/03/16 13:59:38;;;;;;;15.32;8.60;;;;;;;;;;4986203;28;20026;-71
2022/03/16 14:02:11;;;;;;;14.18;8.85;;;;;;;;;;4994030;28;20036;-71
2022/03/16 14:04:40;;;;;;;18.55;8.77;;;;;;;;;;5002953;28;20038;-71
2022/03/16 14:07:29;;;;;;;19.73;8.98;;;;;;;;;;5000092;28;20072;-70
2022/03/16 14:09:56;;;;;;;17.80;9.45;;;;;;;;;;4991328;28;20285;-70
2022/03/16 14:12:23;;;;;;;16.38;9.07;;;;;;;;;;4994217;28;20042;-71
2022/03/16 14:14:49;;;;;;;21.38;9.52;;;;;;;;;;5000727;28;20082;-71
2022/03/16 14:17:15;;;;;;;17.48;8.82;;;;;;;;;;4990917;28;20038;-71
2022/03/16 14:19:43;;;;;;;16.20;8.98;;;;;;;;;;4996267;28;20073;-71
2022/03/16 14:22:13;;;;;;;15.35;8.88;;;;;;;;;;4996969;28;20317;-74
2022/03/16 14:24:39;;;;;;;21.35;9.48;;;;;;;;;;5001056;28;20421;-71
2022/03/16 14:27:19;;;;;;;17.65;9.43;;;;;;;;;;4999993;28;20031;-77
2022/03/16 14:29:46;;;;;;;16.38;8.88;;;;;;;;;;4994869;28;20022;-75
2022/03/16 14:32:13;;;;;;;19.92;9.75;;;;;;;;;;4997614;28;20052;-77
2022/03/16 14:34:40;;;;;;;19.67;9.75;;;;;;;;;;4997664;28;20472;-71
2022/03/16 14:37:05;;;;;;;19.92;9.00;;;;;;;;;;5001124;28;20042;-71
2022/03/16 14:39:32;;;;;;;19.55;9.60;;;;;;;;;;4991422;28;20226;-77
2022/03/16 14:41:57;;;;;;;15.90;9.35;;;;;;;;;;5007493;28;20037;-72